Time;durP1;ratioP1;P1;durP2;ratioP2;P2;SDS_P1;SDS_P2;PMS_P1;PMS_P2;Temp;Humidity;BMP_temperature;BMP_pressure;BME280_temperature;BME280_humidity;BME280_pressure;Samples;Min_cycle;Max_cycle;Signal;HPM_P1;HPM_P2
2023/02/23 00:00:34;;;;;;;17.90;9.30;;;;;;;0.43;67.07;101159.36;104074;1276;99759;-78
2023/02/23 00:03:19;;;;;;;12.50;7.60;;;;;;;0.38;67.17;101154.95;104205;1273;97993;-76
2023/02/23 00:06:03;;;;;;;11.10;7.80;;;;;;;0.35;67.15;101152.77;104492;1273;98591;-78
2023/02/23 00:08:48;;;;;;;13.70;8.10;;;;;;;0.32;67.39;101149.45;104399;1277;97952;-78
2023/02/23 00:11:33;;;;;;;13.50;7.50;;;;;;;0.29;67.38;101147.38;104383;1274;101335;-77
2023/02/23 00:14:19;;;;;;;13.40;7.80;;;;;;;0.27;67.38;101145.26;104491;1288;99369;-77
2023/02/23 00:17:04;;;;;;;13.80;7.90;;;;;;;0.21;67.29;101145.49;104321;1280;98976;-77
2023/02/23 00:19:49;;;;;;;13.00;7.50;;;;;;;0.16;67.24;101145.80;104449;1276;97938;-76
2023/02/23 00:22:34;;;;;;;14.10;7.40;;;;;;;0.14;67.45;101146.48;104401;1279;97982;-78
2023/02/23 00:25:18;;;;;;;14.30;8.20;;;;;;;0.14;67.56;101146.34;104248;1274;101354;-76
2023/02/23 00:28:06;;;;;;;11.10;7.40;;;;;;;0.15;67.59;101143.30;104408;1276;99142;-76
2023/02/23 00:30:51;;;;;;;15.20;8.90;;;;;;;0.14;67.59;101141.95;104357;1287;98794;-76
2023/02/23 00:33:36;;;;;;;12.10;8.10;;;;;;;0.13;67.78;101139.91;104489;1287;97972;-78
2023/02/23 00:36:25;;;;;;;15.90;7.80;;;;;;;0.10;67.82;101137.30;104444;1276;99250;-78
2023/02/23 00:39:22;;;;;;;10.80;6.90;;;;;;;0.08;67.93;101132.69;104922;1273;101306;-76
2023/02/23 00:42:06;;;;;;;13.00;7.40;;;;;;;0.06;67.90;101132.02;104482;1277;99271;-77
2023/02/23 00:44:51;;;;;;;13.10;8.20;;;;;;;0.05;68.03;101131.54;104531;1274;99127;-78
2023/02/23 00:47:38;;;;;;;15.50;8.00;;;;;;;0.02;67.87;101134.54;104481;1276;97998;-77
2023/02/23 00:50:23;;;;;;;13.40;7.90;;;;;;;-0.02;68.02;101134.80;104479;1276;98442;-78
2023/02/23 00:53:07;;;;;;;13.80;8.90;;;;;;;-0.01;68.23;101131.77;104485;1277;101960;-77
2023/02/23 00:55:55;;;;;;;21.60;10.90;;;;;;;-0.01;68.38;101127.73;104400;1276;100464;-78
2023/02/23 00:58:40;;;;;;;18.70;10.10;;;;;;;0.00;68.42;101129.38;104285;1288;98010;-77
2023/02/23 01:01:25;;;;;;;18.80;10.60;;;;;;;0.00;68.41;101129.58;104426;1280;97990;-77
2023/02/23 01:04:11;;;;;;;16.20;8.90;;;;;;;-0.03;68.39;101127.67;104367;1280;98564;-78
2023/02/23 01:06:56;;;;;;;17.90;10.50;;;;;;;-0.05;68.47;101123.59;104253;1273;102920;-76
2023/02/23 01:09:42;;;;;;;16.00;9.20;;;;;;;-0.08;68.39;101123.14;104426;1273;99154;-78
2023/02/23 01:12:29;;;;;;;22.40;9.70;;;;;;;-0.12;68.52;101124.81;104404;1275;98814;-78
2023/02/23 01:15:16;;;;;;;15.00;8.30;;;;;;;-0.11;68.73;101122.59;104382;1275;97883;-77
2023/02/23 01:18:01;;;;;;;18.00;10.10;;;;;;;-0.12;68.65;101126.02;104498;1276;97990;-78
2023/02/23 01:20:46;;;;;;;14.70;8.50;;;;;;;-0.15;68.80;101123.40;104412;1280;103060;-76
2023/02/23 01:23:31;;;;;;;15.30;9.80;;;;;;;-0.15;68.98;101126.55;104455;1273;100344;-76
2023/02/23 01:26:18;;;;;;;14.60;9.10;;;;;;;-0.13;69.10;101122.59;104333;1273;98970;-77
2023/02/23 01:29:07;;;;;;;16.20;9.20;;;;;;;-0.15;68.96;101123.77;104203;1273;97987;-78
2023/02/23 01:31:52;;;;;;;16.20;10.10;;;;;;;-0.16;69.02;101125.10;104424;1276;97929;-76
2023/02/23 01:34:37;;;;;;;16.70;9.50;;;;;;;-0.18;69.05;101126.11;104366;1274;101422;-78
2023/02/23 01:37:22;;;;;;;15.90;10.40;;;;;;;-0.19;69.14;101121.77;104469;1273;99268;-77
2023/02/23 01:40:27;;;;;;;17.40;10.60;;;;;;;-0.21;69.09;101121.38;104430;1277;98811;-77
2023/02/23 01:43:27;;;;;;;17.80;11.00;;;;;;;-0.19;69.11;101120.72;104418;1274;98005;-77
2023/02/23 01:46:12;;;;;;;16.50;9.50;;;;;;;-0.18;69.04;101118.73;104382;1273;98531;-77
2023/02/23 01:48:57;;;;;;;19.30;10.40;;;;;;;-0.18;69.05;101115.58;104486;1276;101383;-77
2023/02/23 01:51:48;;;;;;;16.30;10.00;;;;;;;-0.17;69.18;101116.23;104452;1276;100715;-78
2023/02/23 01:54:36;;;;;;;16.30;9.50;;;;;;;-0.17;69.26;101114.44;104373;1274;99560;-78
2023/02/23 01:57:25;;;;;;;14.50;9.10;;;;;;;-0.17;69.35;101113.63;104414;1277;97907;-76
2023/02/23 02:00:13;;;;;;;18.20;11.70;;;;;;;-0.19;69.33;101110.17;104412;1276;99690;-78
2023/02/23 02:03:02;;;;;;;19.60;9.80;;;;;;;-0.20;69.37;101109.38;104379;1273;101409;-78
2023/02/23 02:05:49;;;;;;;17.80;9.80;;;;;;;-0.21;69.38;101106.33;104325;1273;99265;-77
2023/02/23 02:08:43;;;;;;;16.80;9.30;;;;;;;-0.23;69.38;101104.50;104496;1277;99167;-78
2023/02/23 02:11:29;;;;;;;20.40;9.60;;;;;;;-0.25;69.31;101108.14;104370;1273;97988;-77
2023/02/23 02:14:19;;;;;;;19.70;10.40;;;;;;;-0.26;69.28;101107.40;104380;1277;98510;-78
2023/02/23 02:17:16;;;;;;;18.90;10.20;;;;;;;-0.29;69.39;101103.70;104400;1279;103261;-78
2023/02/23 02:20:31;;;;;;;15.10;9.00;;;;;;;-0.31;69.36;101105.59;104461;1286;100362;-76
2023/02/23 02:24:07;;;;;;;21.00;10.10;;;;;;;-0.34;69.34;101103.70;104417;1278;98704;-78
2023/02/23 02:27:25;;;;;;;16.40;9.20;;;;;;;-0.36;69.50;101105.83;104347;1274;98019;-78
2023/02/23 02:30:22;;;;;;;15.60;9.40;;;;;;;-0.39;69.52;101105.44;104416;1279;99657;-77
2023/02/23 02:33:42;;;;;;;16.10;8.70;;;;;;;-0.41;69.55;101106.66;104372;1274;102704;-78
2023/02/23 02:36:56;;;;;;;18.20;9.20;;;;;;;-0.45;69.65;101105.69;104099;1274;100182;-77
2023/02/23 02:40:15;;;;;;;15.90;9.90;;;;;;;-0.49;69.60;101107.17;104370;1273;98928;-77
2023/02/23 02:43:16;;;;;;;20.50;10.40;;;;;;;-0.52;69.86;101107.08;104281;1279;98170;-77
2023/02/23 02:46:04;;;;;;;21.80;11.20;;;;;;;-0.55;70.04;101101.99;104535;1273;98011;-77
2023/02/23 02:49:11;;;;;;;20.20;11.40;;;;;;;-0.56;70.21;101099.83;104508;1273;103034;-78
2023/02/23 02:52:12;;;;;;;16.40;9.70;;;;;;;-0.59;70.32;101100.14;104388;1274;99071;-77
2023/02/23 02:55:01;;;;;;;;;;;;;;;-0.59;70.58;101097.04;104485;1277;99066;-78
2023/02/23 02:57:50;;;;;;;19.10;11.20;;;;;;;-0.60;70.79;101096.73;104355;1274;101168;-77
2023/02/23 04:18:50;;;;;;;21.50;11.00;;;;;;;-0.32;74.36;101076.35;104402;1273;98698;-77
2023/02/23 04:21:35;;;;;;;22.40;11.50;;;;;;;-0.31;74.56;101074.19;104381;1276;97832;-76
2023/02/23 04:24:19;;;;;;;24.00;11.20;;;;;;;-0.28;74.79;101074.85;104441;1273;101435;-76
2023/02/23 04:27:05;;;;;;;28.70;12.80;;;;;;;-0.27;74.98;101077.60;104412;1273;99303;-76
2023/02/23 04:29:50;;;;;;;21.00;11.10;;;;;;;-0.28;75.18;101077.45;104431;1273;98595;-76
2023/02/23 04:32:34;;;;;;;20.10;12.50;;;;;;;-0.29;75.34;101071.39;104447;1275;99749;-76
2023/02/23 04:35:19;;;;;;;24.30;12.70;;;;;;;-0.29;75.48;101068.75;104392;1276;98422;-77
2023/02/23 04:38:04;;;;;;;22.60;13.20;;;;;;;-0.29;75.56;101064.91;104352;1276;102834;-76
2023/02/23 04:40:50;;;;;;;23.30;12.10;;;;;;;-0.28;75.70;101064.86;104460;1276;99113;-78
2023/02/23 04:43:34;;;;;;;23.50;11.20;;;;;;;-0.28;76.05;101062.73;104550;1273;97985;-78
2023/02/23 04:46:19;;;;;;;20.60;10.90;;;;;;;-0.29;76.35;101065.09;104390;1276;98091;-78
2023/02/23 04:49:04;;;;;;;16.60;9.60;;;;;;;-0.30;76.70;101060.60;104345;1276;97901;-77
2023/02/23 04:51:49;;;;;;;16.20;9.20;;;;;;;-0.30;76.96;101060.76;104375;1279;102263;-77
2023/02/23 04:54:38;;;;;;;18.60;10.90;;;;;;;-0.31;77.16;101061.36;104409;1276;99153;-78
2023/02/23 04:57:23;;;;;;;16.20;10.30;;;;;;;-0.31;77.32;101060.68;104341;1289;99286;-78
2023/02/23 05:00:08;;;;;;;18.50;10.80;;;;;;;-0.29;77.71;101061.91;104462;1273;97916;-78
2023/02/23 05:02:53;;;;;;;18.90;9.10;;;;;;;-0.27;77.95;101057.80;104130;1279;97877;-77
2023/02/23 05:05:38;;;;;;;18.90;10.50;;;;;;;-0.27;78.06;101058.80;104322;1277;101299;-78
2023/02/23 05:08:23;;;;;;;25.70;12.90;;;;;;;-0.26;78.31;101060.33;104411;1277;100427;-77
2023/02/23 05:11:09;;;;;;;17.00;9.70;;;;;;;-0.26;78.58;101055.20;104374;1272;99067;-77
2023/02/23 05:13:53;;;;;;;19.10;11.00;;;;;;;-0.26;78.78;101054.73;104304;1273;97989;-78
2023/02/23 05:16:38;;;;;;;27.60;12.30;;;;;;;-0.26;79.04;101056.44;104572;1276;96659;-78
2023/02/23 05:19:23;;;;;;;21.60;11.60;;;;;;;-0.24;79.24;101055.83;104468;1273;101448;-77
2023/02/23 05:22:11;;;;;;;21.00;10.50;;;;;;;-0.24;79.45;101051.27;104440;1273;99177;-77
2023/02/23 05:24:56;;;;;;;20.20;11.10;;;;;;;-0.24;79.59;101053.38;104394;1280;98998;-77
2023/02/23 05:27:40;;;;;;;20.00;9.70;;;;;;;-0.23;79.73;101053.83;104431;1273;98112;-76
2023/02/23 05:30:25;;;;;;;21.80;10.30;;;;;;;-0.24;79.93;101049.45;104520;1273;98462;-77
2023/02/23 05:33:10;;;;;;;17.70;10.30;;;;;;;-0.23;80.10;101046.60;104382;1274;102684;-76
2023/02/23 05:35:56;;;;;;;17.80;10.80;;;;;;;-0.21;80.19;101048.02;104521;1273;99315;-77
2023/02/23 05:38:41;;;;;;;17.00;8.90;;;;;;;-0.20;80.41;101046.20;104470;1277;99248;-77
2023/02/23 05:41:27;;;;;;;17.80;10.60;;;;;;;-0.21;80.60;101052.07;104387;1274;98439;-76
2023/02/23 05:44:12;;;;;;;15.90;10.30;;;;;;;-0.23;80.67;101050.43;104508;1273;98685;-79
2023/02/23 05:46:57;;;;;;;19.80;10.40;;;;;;;-0.22;80.96;101053.52;104435;1273;102955;-78
2023/02/23 05:49:41;;;;;;;18.00;10.50;;;;;;;-0.21;81.04;101056.78;104430;1273;99187;-79
2023/02/23 05:52:26;;;;;;;19.10;10.60;;;;;;;-0.20;81.09;101057.47;104749;1274;99051;-78
2023/02/23 05:55:11;;;;;;;16.20;10.10;;;;;;;-0.20;81.29;101060.41;104229;1272;97933;-78
2023/02/23 05:57:56;;;;;;;18.70;10.70;;;;;;;-0.18;81.57;101060.14;104501;1276;98515;-77
2023/02/23 06:00:41;;;;;;;19.10;10.60;;;;;;;-0.18;81.78;101058.52;104446;1274;101436;-77
2023/02/23 06:03:25;;;;;;;18.60;10.60;;;;;;;-0.16;81.73;101057.89;104433;1273;100425;-75
2023/02/23 06:06:10;;;;;;;18.30;10.30;;;;;;;-0.14;81.86;101059.81;104352;1275;98291;-78
2023/02/23 06:08:55;;;;;;;18.50;10.90;;;;;;;-0.14;81.98;101058.96;104334;1273;99259;-77
2023/02/23 06:11:39;;;;;;;21.60;11.10;;;;;;;-0.14;82.11;101062.98;104373;1273;98561;-77
2023/02/23 06:14:24;;;;;;;18.90;10.00;;;;;;;-0.13;82.28;101062.73;104424;1273;101446;-78
2023/02/23 06:17:09;;;;;;;21.10;12.30;;;;;;;-0.12;82.23;101061.77;104423;1273;99111;-76
2023/02/23 06:19:54;;;;;;;19.70;11.20;;;;;;;-0.10;82.36;101061.48;104374;1274;98837;-78
2023/02/23 06:22:41;;;;;;;18.10;11.50;;;;;;;-0.09;82.58;101064.52;104442;1273;98007;-77
2023/02/23 06:25:25;;;;;;;18.70;11.00;;;;;;;-0.07;82.73;101070.42;104364;1280;98500;-76
2023/02/23 06:28:10;;;;;;;18.50;10.20;;;;;;;-0.06;82.84;101067.88;104395;1274;102284;-78
2023/02/23 06:30:55;;;;;;;15.60;9.80;;;;;;;-0.02;82.97;101070.91;104478;1274;99200;-77
2023/02/23 06:33:40;;;;;;;20.90;11.30;;;;;;;0.02;83.14;101071.02;104600;1273;99580;-79
2023/02/23 06:36:25;;;;;;;17.60;10.60;;;;;;;0.05;83.32;101070.05;104419;1273;97918;-77
2023/02/23 06:39:11;;;;;;;20.70;12.00;;;;;;;0.08;83.30;101071.41;104427;1274;98002;-77
2023/02/23 06:41:55;;;;;;;20.60;12.50;;;;;;;0.12;83.36;101075.21;104548;1276;103298;-80
2023/02/23 06:44:40;;;;;;;18.20;10.80;;;;;;;0.14;83.25;101075.94;105067;1273;100617;-83
2023/02/23 06:47:25;;;;;;;20.40;12.10;;;;;;;0.17;83.42;101076.56;105070;1274;98117;-84
2023/02/23 06:50:11;;;;;;;21.00;11.70;;;;;;;0.21;83.41;101081.21;104948;1273;97930;-85
2023/02/23 06:52:56;;;;;;;19.10;10.70;;;;;;;0.22;83.18;101084.29;104995;1279;98116;-84
2023/02/23 06:55:41;;;;;;;21.50;12.80;;;;;;;0.24;83.28;101085.95;104977;1273;102707;-78
2023/02/23 06:58:26;;;;;;;21.80;10.90;;;;;;;0.29;83.53;101085.70;104066;1274;100461;-75
2023/02/23 07:01:11;;;;;;;23.70;12.40;;;;;;;0.33;83.29;101080.34;104061;1277;98382;-76
2023/02/23 07:03:56;;;;;;;22.80;12.20;;;;;;;0.35;83.18;101079.16;104021;1276;98013;-77
2023/02/23 07:06:41;;;;;;;22.50;12.10;;;;;;;0.36;83.18;101076.65;104084;1276;98445;-76
2023/02/23 07:09:26;;;;;;;21.80;12.00;;;;;;;0.35;83.26;101072.64;104106;1277;101365;-76
2023/02/23 07:12:10;;;;;;;22.10;13.00;;;;;;;0.36;83.31;101072.91;104162;1274;100001;-76
2023/02/23 07:14:55;;;;;;;20.50;11.90;;;;;;;0.41;83.43;101074.86;104018;1273;98314;-76
2023/02/23 07:17:40;;;;;;;18.20;10.80;;;;;;;0.45;83.39;101071.70;103977;1280;97997;-76
2023/02/23 07:20:25;;;;;;;21.90;12.10;;;;;;;0.48;83.43;101069.06;104004;1280;98049;-77
2023/02/23 07:23:09;;;;;;;23.10;12.60;;;;;;;0.50;83.26;101064.52;104084;1277;101452;-77
2023/02/23 07:25:55;;;;;;;17.50;11.10;;;;;;;0.53;83.27;101066.52;104123;1276;99268;-76
2023/02/23 07:28:40;;;;;;;21.80;11.60;;;;;;;0.58;83.32;101063.77;104051;1276;99071;-77
2023/02/23 07:31:26;;;;;;;24.50;12.50;;;;;;;0.63;83.53;101056.48;104180;1277;98106;-80
2023/02/23 07:34:11;;;;;;;22.00;12.30;;;;;;;0.70;83.66;101055.14;105393;1273;97884;-84
2023/02/23 07:36:56;;;;;;;23.40;13.90;;;;;;;0.76;83.56;101052.00;105262;1273;101323;-83
2023/02/23 07:39:47;;;;;;;28.70;14.20;;;;;;;0.83;83.56;101048.52;105437;1272;100557;-83
2023/02/23 07:42:32;;;;;;;29.00;15.60;;;;;;;0.89;83.40;101045.83;105216;1273;98281;-82
2023/02/23 07:45:17;;;;;;;38.00;18.40;;;;;;;0.91;83.23;101042.80;105212;1279;98696;-84
2023/02/23 07:48:05;;;;;;;25.30;14.60;;;;;;;0.93;83.10;101042.47;105553;1274;97918;-87
2023/02/23 07:50:50;;;;;;;27.80;14.20;;;;;;;0.94;83.14;101034.83;105312;1273;102647;-80
2023/02/23 07:53:35;;;;;;;28.30;14.80;;;;;;;1.00;83.30;101032.83;105609;1273;99413;-83
2023/02/23 07:56:20;;;;;;;35.10;16.70;;;;;;;1.05;83.31;101032.95;105329;1274;97924;-83
2023/02/23 07:59:05;;;;;;;29.10;15.60;;;;;;;1.11;83.34;101028.42;104955;1275;98009;-77
2023/02/23 08:01:50;;;;;;;32.80;16.90;;;;;;;1.17;83.32;101026.78;104285;1275;98525;-76
2023/02/23 08:04:35;;;;;;;24.80;13.00;;;;;;;1.21;83.12;101026.46;104156;1274;101979;-77
2023/02/23 08:07:21;;;;;;;25.50;13.30;;;;;;;1.27;83.29;101021.55;104041;1288;100252;-77
2023/02/23 08:10:06;;;;;;;45.00;21.60;;;;;;;1.34;83.28;101018.23;104320;1276;99044;-75
2023/02/23 08:12:53;;;;;;;40.40;19.60;;;;;;;1.41;83.31;101014.52;104680;1273;98106;-87
2023/02/23 08:15:41;;;;;;;40.50;15.70;;;;;;;1.48;83.41;101010.95;104982;1273;97992;-82
2023/02/23 08:18:26;;;;;;;27.50;14.00;;;;;;;1.55;83.36;101007.77;105122;1274;103658;-81
2023/02/23 08:21:11;;;;;;;134.10;53.70;;;;;;;1.60;83.23;101007.05;104853;1274;99210;-85
2023/02/23 08:23:57;;;;;;;73.90;30.80;;;;;;;1.61;82.90;101004.33;105043;1277;99233;-81
2023/02/23 08:26:42;;;;;;;197.10;63.30;;;;;;;1.62;82.87;101006.19;105000;1273;98089;-76
2023/02/23 08:29:26;;;;;;;261.70;83.00;;;;;;;1.64;82.88;101006.40;104856;1273;98536;-77
2023/02/23 08:32:12;;;;;;;192.30;77.60;;;;;;;1.67;82.97;101004.89;104093;1276;101366;-76
2023/02/23 08:34:59;;;;;;;68.40;33.90;;;;;;;1.72;83.01;100998.15;104084;1275;99737;-76
2023/02/23 08:37:44;;;;;;;64.90;33.20;;;;;;;1.77;83.10;100998.26;105604;1276;99047;-77
2023/02/23 08:40:29;;;;;;;37.20;18.80;;;;;;;1.82;82.87;100995.81;104348;1275;98006;-76
2023/02/23 08:43:14;;;;;;;25.70;16.50;;;;;;;1.87;82.91;100992.92;104316;1277;97991;-77
2023/02/23 08:45:59;;;;;;;26.60;13.50;;;;;;;1.92;82.79;100995.67;105171;1275;101555;-83
2023/02/23 08:48:45;;;;;;;20.90;11.40;;;;;;;1.97;82.72;100994.02;105030;1274;100397;-83
2023/02/23 08:51:33;;;;;;;21.40;12.60;;;;;;;2.02;82.66;100990.80;104959;1277;100171;-82
2023/02/23 08:54:19;;;;;;;18.90;11.00;;;;;;;2.06;82.46;100986.27;104839;1274;99093;-83
2023/02/23 08:57:09;;;;;;;23.70;13.50;;;;;;;2.09;82.51;100981.75;104821;1276;98408;-88
2023/02/23 08:59:55;;;;;;;26.90;14.70;;;;;;;2.16;82.60;100977.73;105285;1277;103709;-86
2023/02/23 09:02:41;;;;;;;39.40;19.70;;;;;;;2.22;82.62;100970.89;104887;1274;99255;-83
2023/02/23 09:05:27;;;;;;;24.50;13.50;;;;;;;2.28;82.45;100967.54;104794;1277;99082;-77
2023/02/23 09:08:13;;;;;;;18.10;11.30;;;;;;;2.32;82.37;100968.05;104379;1273;97987;-77
2023/02/23 09:10:58;;;;;;;20.70;11.60;;;;;;;2.38;82.32;100965.48;104460;1276;98529;-77
2023/02/23 09:13:43;;;;;;;19.60;11.80;;;;;;;2.43;82.26;100964.70;104352;1276;101432;-86
2023/02/23 09:16:31;;;;;;;21.00;11.60;;;;;;;2.47;82.14;100958.17;104340;1276;99082;-78
2023/02/23 09:19:16;;;;;;;28.10;13.80;;;;;;;2.52;81.98;100961.31;104697;1276;98830;-76
2023/02/23 09:22:01;;;;;;;21.60;12.50;;;;;;;2.54;81.97;100958.83;105305;1273;97929;-87
2023/02/23 09:24:48;;;;;;;20.80;11.80;;;;;;;2.59;81.90;100955.48;105088;1277;98436;-86
2023/02/23 09:27:36;;;;;;;19.50;11.80;;;;;;;2.62;81.75;100954.45;105506;1273;102625;-88
2023/02/23 09:30:22;;;;;;;19.90;11.70;;;;;;;2.67;81.77;100945.95;105147;1273;99129;-85
2023/02/23 09:33:07;;;;;;;19.60;10.10;;;;;;;2.77;82.08;100945.66;105020;1272;99012;-77
2023/02/23 09:35:57;;;;;;;29.00;15.60;;;;;;;2.86;82.07;100942.71;105289;1274;97981;-83
2023/02/23 09:38:45;;;;;;;27.80;15.00;;;;;;;2.94;81.84;100936.00;104893;1277;98452;-81
2023/02/23 09:41:59;;;;;;;22.70;12.10;;;;;;;3.02;81.75;100933.38;105219;1273;101332;-80
2023/02/23 09:44:56;;;;;;;18.70;11.20;;;;;;;3.11;81.41;100926.64;105162;1273;101392;-77
2023/02/23 09:48:02;;;;;;;20.70;11.50;;;;;;;3.19;81.37;100923.89;105315;1273;97845;-82
2023/02/23 09:50:51;;;;;;;18.00;11.60;;;;;;;3.25;81.04;100922.95;104902;1277;98087;-80
2023/02/23 09:53:53;;;;;;;17.90;11.30;;;;;;;3.33;80.84;100917.89;105078;1273;98517;-83
2023/02/23 09:56:44;;;;;;;19.30;11.60;;;;;;;3.39;80.71;100923.48;104672;1275;102907;-83
2023/02/23 09:59:30;;;;;;;20.10;11.60;;;;;;;3.45;80.37;100915.23;105132;1273;101953;-87
2023/02/23 10:02:38;;;;;;;20.90;11.70;;;;;;;3.50;80.27;100909.11;104972;1273;99913;-81
2023/02/23 10:05:33;;;;;;;18.30;11.40;;;;;;;3.57;80.29;100903.92;105382;1279;97911;-85
2023/02/23 10:08:44;;;;;;;20.70;12.50;;;;;;;3.65;80.24;100900.20;105103;1277;97976;-80
2023/02/23 10:11:39;;;;;;;20.40;10.50;;;;;;;3.72;80.15;100897.97;105021;1277;101515;-80
2023/02/23 10:14:34;;;;;;;21.90;11.90;;;;;;;3.79;80.07;100896.45;104622;1276;100362;-78
2023/02/23 10:17:35;;;;;;;19.50;12.50;;;;;;;3.85;79.86;100888.48;104577;1273;99190;-80
2023/02/23 10:20:27;;;;;;;16.70;10.80;;;;;;;3.89;79.53;100883.84;105032;1273;97984;-77
2023/02/23 10:23:21;;;;;;;21.80;11.90;;;;;;;3.94;79.48;100883.12;105367;1272;99836;-86
2023/02/23 10:26:12;;;;;;;19.60;10.90;;;;;;;4.00;79.34;100879.95;104551;1274;102628;-76
2023/02/23 10:28:58;;;;;;;17.60;10.50;;;;;;;4.03;78.98;100877.39;104162;1279;100121;-75
2023/02/23 10:31:48;;;;;;;16.40;10.20;;;;;;;4.08;78.96;100872.45;104020;1279;99186;-76
2023/02/23 10:34:35;;;;;;;17.80;10.20;;;;;;;4.13;78.79;100865.31;104069;1274;97942;-76
2023/02/23 10:37:21;;;;;;;19.80;10.40;;;;;;;4.19;78.97;100862.80;104167;1275;99590;-78
2023/02/23 10:40:14;;;;;;;17.80;9.90;;;;;;;4.27;78.84;100859.56;104053;1273;102680;-77
2023/02/23 10:43:01;;;;;;;13.80;9.30;;;;;;;4.33;78.40;100854.20;104079;1277;99291;-77
2023/02/23 10:45:48;;;;;;;15.20;9.00;;;;;;;4.37;78.12;100848.17;105228;1276;101196;-77
2023/02/23 10:48:42;;;;;;;15.50;9.40;;;;;;;4.42;77.98;100845.21;104490;1274;98032;-76
2023/02/23 10:51:31;;;;;;;18.80;10.10;;;;;;;4.49;78.00;100839.11;104068;1273;98704;-78
2023/02/23 10:54:36;;;;;;;12.80;8.30;;;;;;;4.54;77.51;100835.31;104201;1277;102738;-77
2023/02/23 10:57:22;;;;;;;13.40;8.90;;;;;;;4.60;77.59;100830.61;104113;1277;99818;-79
2023/02/23 11:00:19;;;;;;;15.50;9.50;;;;;;;4.67;77.18;100828.24;103954;1272;98097;-75
2023/02/23 11:03:35;;;;;;;15.10;9.10;;;;;;;4.71;76.87;100823.63;104152;1273;97909;-75
2023/02/23 11:06:32;;;;;;;16.60;9.20;;;;;;;4.76;76.81;100817.17;104025;1273;98436;-77
2023/02/23 11:09:26;;;;;;;16.00;9.20;;;;;;;4.80;76.95;100808.63;104054;1274;101335;-76
2023/02/23 11:12:23;;;;;;;15.20;9.20;;;;;;;4.85;76.86;100803.66;104135;1277;100715;-76
2023/02/23 11:15:24;;;;;;;15.60;8.30;;;;;;;4.90;76.93;100800.58;104032;1274;98742;-75
2023/02/23 11:18:19;;;;;;;14.80;9.50;;;;;;;4.94;76.86;100797.31;104190;1275;99144;-77
2023/02/23 11:21:10;;;;;;;15.90;9.10;;;;;;;4.98;76.88;100794.61;104126;1274;98116;-75
2023/02/23 11:23:57;;;;;;;14.30;8.30;;;;;;;5.02;76.76;100789.48;104196;1277;102672;-77
2023/02/23 11:26:44;;;;;;;13.50;8.70;;;;;;;5.04;76.60;100783.41;104083;1278;99559;-77
2023/02/23 11:29:34;;;;;;;13.30;8.70;;;;;;;5.08;76.55;100781.93;104138;1277;99111;-78
2023/02/23 11:32:21;;;;;;;19.50;8.80;;;;;;;5.13;76.53;100779.03;104080;1277;98041;-77
2023/02/23 11:35:21;;;;;;;13.60;8.70;;;;;;;5.18;76.33;100769.30;104050;1274;98646;-77
2023/02/23 11:38:22;;;;;;;15.10;9.00;;;;;;;5.24;76.36;100764.70;104138;1277;102239;-78
2023/02/23 11:41:20;;;;;;;14.50;8.70;;;;;;;5.31;76.20;100760.30;104007;1274;100373;-78
2023/02/23 11:44:05;;;;;;;15.50;9.90;;;;;;;5.37;76.13;100756.23;104106;1274;98693;-77
2023/02/23 11:46:51;;;;;;;14.30;8.90;;;;;;;5.45;76.15;100750.74;104141;1275;98106;-78
2023/02/23 11:49:37;;;;;;;15.10;8.60;;;;;;;5.52;75.67;100745.10;104393;1277;97920;-78
2023/02/23 11:52:26;;;;;;;21.80;10.00;;;;;;;5.55;75.68;100741.42;104145;1277;102680;-76
2023/02/23 11:55:17;;;;;;;19.60;9.20;;;;;;;5.60;75.37;100742.92;104191;1277;100423;-77
2023/02/23 11:58:31;;;;;;;19.10;9.60;;;;;;;5.62;74.95;100735.94;104096;1277;97966;-76
2023/02/23 12:01:40;;;;;;;16.20;9.20;;;;;;;5.64;74.93;100732.04;104217;1280;99168;-77
2023/02/23 12:04:35;;;;;;;17.30;9.90;;;;;;;5.67;74.98;100727.09;104383;1277;98110;-78
2023/02/23 12:07:20;;;;;;;16.20;8.30;;;;;;;5.72;74.89;100723.98;105126;1277;101451;-75
2023/02/23 12:10:23;;;;;;;15.40;9.60;;;;;;;5.74;74.73;100722.53;104438;1277;100358;-77
2023/02/23 12:13:37;;;;;;;16.60;9.10;;;;;;;5.80;74.56;100718.56;104376;1273;98231;-78
2023/02/23 12:16:28;;;;;;;16.60;9.00;;;;;;;5.90;74.75;100713.26;104153;1277;97910;-76
2023/02/23 12:19:35;;;;;;;17.30;8.70;;;;;;;6.05;75.01;100710.34;104326;1274;99304;-77
2023/02/23 12:22:31;;;;;;;15.70;8.30;;;;;;;6.16;74.48;100701.20;104223;1274;101882;-77
2023/02/23 12:25:38;;;;;;;13.90;8.70;;;;;;;6.20;73.71;100692.12;104250;1277;100559;-76
2023/02/23 12:28:51;;;;;;;18.40;9.80;;;;;;;6.20;73.25;100686.80;104472;1274;98033;-83
2023/02/23 12:31:48;;;;;;;16.10;9.20;;;;;;;6.17;72.93;100688.35;105245;1280;97927;-82
2023/02/23 12:35:02;;;;;;;18.60;9.00;;;;;;;6.12;72.94;100689.18;105421;1274;97968;-85
2023/02/23 12:38:01;;;;;;;14.80;8.50;;;;;;;6.12;73.16;100683.02;104902;1280;102676;-81
2023/02/23 12:40:46;;;;;;;13.40;8.60;;;;;;;6.13;72.92;100672.99;105291;1280;100619;-81
2023/02/23 12:43:39;;;;;;;15.50;8.30;;;;;;;6.13;72.84;100669.97;105400;1274;99777;-80
2023/02/23 12:46:29;;;;;;;15.30;11.00;;;;;;;6.12;72.47;100667.43;105652;1274;97998;-81
2023/02/23 12:49:38;;;;;;;16.10;9.20;;;;;;;6.13;72.44;100668.54;104887;1274;98173;-83
2023/02/23 12:52:33;;;;;;;45.80;22.30;;;;;;;6.15;72.54;100663.87;105394;1275;102700;-82
2023/02/23 12:55:29;;;;;;;18.40;10.60;;;;;;;6.19;72.30;100656.08;105031;1277;99226;-80
2023/02/23 12:58:57;;;;;;;;;;;;;;;;;;;;;
2023/02/23 13:05:25;;;;;;;13.70;8.00;;;;;;;6.26;71.81;100636.86;105375;1276;98312;-82
2023/02/23 13:08:25;;;;;;;15.10;9.70;;;;;;;6.29;71.71;100634.32;105117;1276;101991;-81
2023/02/23 13:11:49;;;;;;;17.10;8.20;;;;;;;6.33;72.11;100633.70;105031;1279;100306;-81
2023/02/23 13:14:49;;;;;;;16.80;9.50;;;;;;;6.38;72.05;100630.85;104187;1286;98059;-83
2023/02/23 13:17:53;;;;;;;15.90;8.50;;;;;;;6.42;71.93;100629.20;105097;1279;97934;-81
2023/02/23 13:20:44;;;;;;;14.00;8.60;;;;;;;6.46;71.79;100623.73;104988;1276;97904;-83
2023/02/23 13:23:33;;;;;;;;;;;;;;;6.51;71.84;100623.11;105136;1276;102711;-80
2023/02/23 13:26:45;;;;;;;17.70;9.10;;;;;;;6.53;71.35;100618.44;104496;1277;100509;-81
2023/02/23 13:29:36;;;;;;;;;;;;;;;6.56;71.56;100615.61;105164;1277;98297;-83
2023/02/23 13:32:23;;;;;;;15.30;8.30;;;;;;;6.58;71.80;100608.27;105026;1279;97934;-78
2023/02/23 13:35:20;;;;;;;23.90;11.30;;;;;;;6.61;71.41;100606.78;104853;1280;97895;-77
2023/02/23 13:38:32;;;;;;;15.60;8.80;;;;;;;6.61;71.02;100597.52;105339;1279;101336;-77
2023/02/23 13:41:43;;;;;;;18.70;10.10;;;;;;;6.57;70.87;100591.73;104900;1279;100582;-83
2023/02/23 13:44:39;;;;;;;17.30;9.90;;;;;;;6.56;71.08;100589.91;105158;1277;99005;-85
2023/02/23 13:47:49;;;;;;;15.40;8.90;;;;;;;6.57;71.12;100586.11;104677;1277;98081;-85
2023/02/23 13:51:03;;;;;;;20.20;10.10;;;;;;;6.56;70.76;100584.05;105124;1276;98742;-87
2023/02/23 13:53:57;;;;;;;20.30;10.50;;;;;;;6.57;70.93;100586.95;104881;1277;103756;-84
2023/02/23 13:56:50;;;;;;;20.00;9.30;;;;;;;6.55;70.78;100580.23;104810;1280;99106;-83
2023/02/23 13:59:40;;;;;;;16.20;8.10;;;;;;;6.54;70.75;100576.23;104871;1280;98001;-87
2023/02/23 14:02:29;;;;;;;18.00;8.90;;;;;;;6.53;70.84;100574.09;104852;1282;98038;-81
2023/02/23 14:05:25;;;;;;;15.00;10.30;;;;;;;6.52;71.39;100572.35;104851;1279;98506;-83
2023/02/23 14:08:25;;;;;;;17.50;11.70;;;;;;;6.52;71.24;100568.36;104938;1279;102812;-82
2023/02/23 14:11:33;;;;;;;25.40;10.80;;;;;;;6.51;71.52;100564.88;104656;1283;100575;-76
2023/02/23 14:14:30;;;;;;;20.20;10.80;;;;;;;6.53;71.38;100561.48;104830;1275;98040;-75
2023/02/23 14:17:18;;;;;;;14.30;8.20;;;;;;;6.54;71.20;100557.44;104313;1276;98032;-76